Time;durP1;ratioP1;P1;durP2;ratioP2;P2;SDS_P1;SDS_P2;PMS_P1;PMS_P2;Temp;Humidity;BMP_temperature;BMP_pressure;BME280_temperature;BME280_humidity;BME280_pressure;Samples;Min_cycle;Max_cycle;Signal;HPM_P1;HPM_P2
2022/05/26 00:01:53;;;;;;;3.92;2.78;;;;;;;13.30;70.72;100750.81;4973635;28;20540;-54
2022/05/26 00:04:23;;;;;;;4.95;2.65;;;;;;;13.32;70.47;100752.50;4973911;28;20558;-54
2022/05/26 00:06:55;;;;;;;4.30;3.03;;;;;;;13.35;70.52;100746.38;4974107;28;20051;-55
2022/05/26 00:09:23;;;;;;;3.65;2.65;;;;;;;13.38;70.34;100746.31;4973721;28;20146;-55
2022/05/26 00:11:51;;;;;;;3.80;2.80;;;;;;;13.40;70.46;100739.31;4973966;28;20139;-55
2022/05/26 00:14:26;;;;;;;5.47;3.08;;;;;;;13.41;70.23;100748.84;4974115;28;20055;-51
2022/05/26 00:16:54;;;;;;;7.30;4.53;;;;;;;13.41;70.52;100748.84;4973834;28;20051;-55
2022/05/26 00:19:25;;;;;;;6.45;3.42;;;;;;;13.42;70.33;100742.75;4974058;28;20102;-54
2022/05/26 00:21:52;;;;;;;4.28;2.63;;;;;;;13.42;70.36;100747.97;4985514;28;20167;-54
2022/05/26 00:24:22;;;;;;;5.15;2.88;;;;;;;13.42;70.52;100740.16;4993079;28;20061;-51
2022/05/26 00:26:50;;;;;;;4.85;3.13;;;;;;;13.44;70.39;100740.97;4993356;28;20141;-53
2022/05/26 00:29:21;;;;;;;4.43;2.78;;;;;;;13.45;70.26;100740.94;4993050;28;20050;-54
2022/05/26 00:32:00;;;;;;;5.00;3.05;;;;;;;13.48;70.20;100734.81;4993045;28;20494;-55
2022/05/26 00:34:28;;;;;;;5.05;3.00;;;;;;;13.45;70.53;100733.13;4993363;28;20061;-51
2022/05/26 00:36:58;;;;;;;5.20;2.97;;;;;;;13.47;70.38;100733.09;4993150;28;20061;-54
2022/05/26 00:39:29;;;;;;;4.07;3.10;;;;;;;13.44;70.50;100734.03;4993433;28;20047;-53
2022/05/26 00:42:01;;;;;;;4.80;3.15;;;;;;;13.45;70.29;100735.72;4992885;28;20474;-54
2022/05/26 00:44:29;;;;;;;4.72;3.28;;;;;;;13.44;70.47;100731.41;4997712;28;20054;-53
2022/05/26 00:47:01;;;;;;;3.70;2.63;;;;;;;13.47;70.29;100735.69;5004589;28;20059;-52
2022/05/26 00:49:39;;;;;;;3.50;2.65;;;;;;;13.47;70.41;100743.50;4967775;28;20140;-55
2022/05/26 00:52:11;;;;;;;4.53;2.50;;;;;;;13.49;70.33;100739.13;4983427;28;20047;-54
2022/05/26 00:54:39;;;;;;;6.38;3.58;;;;;;;13.50;70.47;100743.44;4976821;28;20065;-54
2022/05/26 00:57:11;;;;;;;3.85;2.60;;;;;;;13.50;70.38;100738.25;4976880;28;20353;-55
2022/05/26 00:59:46;;;;;;;3.70;2.85;;;;;;;13.52;70.30;100746.88;4976752;28;20510;-52
2022/05/26 01:02:35;;;;;;;5.72;3.20;;;;;;;13.51;70.25;100739.97;4977310;28;20081;-54
2022/05/26 01:05:13;;;;;;;3.63;2.72;;;;;;;13.48;70.34;100735.66;4977021;28;20463;-54
2022/05/26 01:07:43;;;;;;;4.63;3.20;;;;;;;13.50;70.59;100735.63;4976730;28;20058;-53
2022/05/26 01:10:20;;;;;;;5.45;3.40;;;;;;;13.50;70.29;100733.03;4977123;28;20054;-54
2022/05/26 01:12:51;;;;;;;5.13;3.20;;;;;;;13.48;70.41;100713.97;4975829;28;20054;-54
2022/05/26 01:15:22;;;;;;;6.03;2.92;;;;;;;13.50;70.62;100717.41;4976866;28;20110;-50
2022/05/26 01:18:15;;;;;;;4.55;3.40;;;;;;;13.51;70.42;100708.72;4985759;28;20053;-51
2022/05/26 01:20:58;;;;;;;4.63;3.03;;;;;;;13.50;70.32;100720.00;4996113;28;20054;-51
2022/05/26 01:24:24;;;;;;;3.92;3.20;;;;;;;13.50;70.44;100722.63;4996130;28;20062;-50
2022/05/26 01:27:32;;;;;;;5.22;2.92;;;;;;;13.49;70.45;100715.69;4995951;28;20050;-51
2022/05/26 01:30:30;;;;;;;4.05;3.13;;;;;;;13.50;70.38;100720.00;4995964;28;20058;-54
2022/05/26 01:33:31;;;;;;;5.53;3.38;;;;;;;13.51;70.22;100719.13;4995854;28;20058;-51
2022/05/26 01:36:23;;;;;;;4.20;2.97;;;;;;;13.49;70.09;100719.16;4995706;28;20410;-50
2022/05/26 01:39:07;;;;;;;4.68;3.15;;;;;;;13.50;69.99;100717.41;4970540;28;20061;-51
2022/05/26 01:41:49;;;;;;;3.72;2.70;;;;;;;13.52;70.08;100721.69;4976546;28;20054;-53
2022/05/26 01:44:30;;;;;;;4.38;2.97;;;;;;;13.50;70.12;100715.66;4982166;28;20077;-51
2022/05/26 01:47:04;;;;;;;5.18;2.90;;;;;;;13.50;70.11;100710.44;5015125;28;20529;-51
2022/05/26 01:49:43;;;;;;;3.33;2.58;;;;;;;13.53;69.80;100712.16;5014868;28;20108;-52
2022/05/26 01:52:16;;;;;;;4.97;3.17;;;;;;;13.53;69.62;100706.97;5015189;28;20050;-52
2022/05/26 01:54:50;;;;;;;5.10;2.67;;;;;;;13.53;69.62;100714.78;5015067;28;20057;-53
2022/05/26 01:57:29;;;;;;;3.88;2.63;;;;;;;13.54;69.40;100708.69;5015128;28;20053;-51
2022/05/26 02:00:06;;;;;;;4.30;2.70;;;;;;;13.52;69.07;100695.66;5015233;28;20077;-53
2022/05/26 02:02:42;;;;;;;4.43;2.72;;;;;;;13.52;69.38;100684.38;5006395;28;20052;-52
2022/05/26 02:05:13;;;;;;;;;;;;;;;13.42;68.91;100678.50;4994119;28;20046;-51
2022/05/26 02:07:48;;;;;;;6.47;2.90;;;;;;;13.44;69.15;100675.88;4993747;28;20542;-54
2022/05/26 02:10:25;;;;;;;4.30;2.75;;;;;;;13.46;68.90;100671.50;4994043;28;20055;-51
2022/05/26 02:12:55;;;;;;;3.95;2.78;;;;;;;13.45;68.92;100673.25;4994943;28;20084;-52
2022/05/26 02:15:30;;;;;;;3.85;2.55;;;;;;;13.45;68.76;100662.81;4975038;28;20482;-53
2022/05/26 02:18:05;;;;;;;3.95;2.92;;;;;;;13.47;68.79;100663.66;4986106;28;20046;-50
2022/05/26 02:20:44;;;;;;;4.18;2.85;;;;;;;13.47;68.56;100668.84;4995095;28;20058;-50
2022/05/26 02:23:23;;;;;;;3.50;2.47;;;;;;;13.48;68.38;100662.75;4995306;28;20145;-51
2022/05/26 02:29:51;;;;;;;4.90;2.65;;;;;;;13.49;68.25;100653.19;4994808;28;20062;-51
2022/05/26 02:31:24;;;;;;;4.55;2.90;;;;;;;13.48;68.20;100662.75;4994741;28;20450;-53
2022/05/26 02:33:54;;;;;;;5.53;2.63;;;;;;;13.49;68.15;100658.41;4991624;28;20054;-51
2022/05/26 02:36:30;;;;;;;4.25;2.78;;;;;;;13.49;67.90;100648.00;4987827;28;20451;-51
2022/05/26 02:38:58;;;;;;;3.00;2.35;;;;;;;13.48;67.82;100651.47;4984464;28;20494;-53
2022/05/26 02:41:29;;;;;;;3.92;2.92;;;;;;;13.49;67.98;100637.56;4975233;28;20066;-51
2022/05/26 02:43:58;;;;;;;4.68;2.60;;;;;;;13.49;67.72;100645.38;4975888;28;20093;-50
2022/05/26 02:46:47;;;;;;;3.72;2.50;;;;;;;13.51;67.81;100646.22;5014404;28;20054;-54
2022/05/26 02:49:30;;;;;;;4.53;2.10;;;;;;;13.53;67.31;100644.47;5014152;28;20081;-53
2022/05/26 02:52:09;;;;;;;3.70;2.53;;;;;;;13.56;67.50;100644.38;5014238;28;20061;-51
2022/05/26 02:54:50;;;;;;;2.83;2.20;;;;;;;13.57;67.29;100648.72;5014334;28;20133;-52
2022/05/26 02:57:24;;;;;;;3.30;2.45;;;;;;;13.57;67.25;100651.31;5014105;28;20054;-51
2022/05/26 03:00:04;;;;;;;4.10;2.40;;;;;;;13.58;67.00;100647.81;4998369;28;20065;-54
2022/05/26 03:02:39;;;;;;;3.10;2.10;;;;;;;13.58;67.08;100648.69;4994418;28;20089;-51
2022/05/26 03:05:16;;;;;;;3.58;2.15;;;;;;;13.58;67.17;100646.06;4993765;28;20061;-51
2022/05/26 03:07:53;;;;;;;3.13;2.20;;;;;;;13.55;66.81;100642.69;4994005;28;20054;-51
2022/05/26 03:10:25;;;;;;;2.63;1.88;;;;;;;13.54;66.87;100635.75;4994245;28;20062;-52
2022/05/26 03:12:59;;;;;;;2.58;2.00;;;;;;;13.54;66.81;100631.41;4994063;28;20352;-51
2022/05/26 03:15:28;;;;;;;3.65;2.00;;;;;;;13.53;66.87;100624.47;4993408;28;20058;-54
2022/05/26 03:17:59;;;;;;;2.92;1.95;;;;;;;13.57;66.77;100620.06;4994190;28;20058;-54
2022/05/26 03:20:27;;;;;;;3.47;2.17;;;;;;;13.61;66.56;100626.91;4993857;28;20054;-52
2022/05/26 03:23:04;;;;;;;3.03;2.05;;;;;;;13.64;66.72;100626.84;4994049;28;20046;-51
2022/05/26 03:25:33;;;;;;;2.60;2.13;;;;;;;13.64;66.53;100621.63;4994061;28;20054;-51
2022/05/26 03:28:00;;;;;;;3.17;2.17;;;;;;;13.65;66.59;100620.75;4993912;28;20129;-51
2022/05/26 03:30:30;;;;;;;2.92;2.10;;;;;;;13.68;66.44;100612.84;4993711;28;20398;-51
2022/05/26 03:33:00;;;;;;;4.85;1.90;;;;;;;13.70;66.54;100616.28;4994056;28;20046;-51
2022/05/26 03:41:12;;;;;;;2.47;1.80;;;;;;;13.74;66.48;100609.25;4933625;29;20188;-51
2022/05/26 03:43:44;;;;;;;3.72;1.92;;;;;;;13.74;66.60;100606.66;4933605;29;20055;-51
2022/05/26 03:46:12;;;;;;;2.33;1.83;;;;;;;13.72;66.73;100598.88;4933086;29;20392;-53
2022/05/26 03:48:40;;;;;;;3.05;2.10;;;;;;;13.73;66.99;100611.00;4933673;29;20063;-53
2022/05/26 03:51:09;;;;;;;2.78;2.13;;;;;;;13.71;67.15;100599.75;4933218;29;20206;-53
2022/05/26 03:53:45;;;;;;;3.42;2.03;;;;;;;13.73;67.19;100605.78;4933308;29;20059;-50
2022/05/26 03:56:15;;;;;;;2.55;2.10;;;;;;;13.73;67.22;100600.56;4933608;29;20102;-51
2022/05/26 03:58:44;;;;;;;3.38;2.38;;;;;;;13.75;67.40;100604.00;4933528;29;20055;-51
2022/05/26 04:01:10;;;;;;;3.55;2.10;;;;;;;13.77;67.44;100597.00;4933570;29;20055;-51
2022/05/26 04:03:38;;;;;;;3.10;2.15;;;;;;;13.81;67.76;100598.66;4933367;29;20439;-53
2022/05/26 04:06:08;;;;;;;3.90;2.30;;;;;;;13.83;67.58;100602.06;4933230;29;20055;-51
2022/05/26 04:08:36;;;;;;;3.58;2.40;;;;;;;13.84;67.61;100595.13;4933244;29;20063;-51
2022/05/26 04:11:06;;;;;;;3.22;2.20;;;;;;;13.86;67.36;100596.78;4933364;29;20056;-50
2022/05/26 04:13:37;;;;;;;3.58;2.40;;;;;;;13.85;67.60;100584.66;4933364;29;20551;-51
2022/05/26 04:16:07;;;;;;;3.88;2.28;;;;;;;13.87;67.49;100593.28;4941944;28;20054;-52
2022/05/26 04:18:37;;;;;;;3.05;2.17;;;;;;;13.90;67.45;100593.22;4993428;28;20057;-51
2022/05/26 04:21:10;;;;;;;3.38;2.65;;;;;;;13.93;67.65;100586.22;4993075;28;20054;-51
2022/05/26 04:23:45;;;;;;;3.40;2.10;;;;;;;13.96;67.51;100586.13;4993214;28;20062;-50
2022/05/26 04:26:16;;;;;;;3.03;2.17;;;;;;;13.98;67.66;100589.56;4993398;28;20054;-54
2022/05/26 04:28:44;;;;;;;3.25;2.40;;;;;;;14.03;67.30;100582.47;4995705;28;20050;-52
2022/05/26 04:31:13;;;;;;;3.75;2.22;;;;;;;14.07;67.44;100586.75;4997116;28;20064;-53
2022/05/26 04:33:44;;;;;;;2.67;1.90;;;;;;;14.09;67.52;100579.75;4996838;28;20450;-54
2022/05/26 04:36:14;;;;;;;4.05;2.45;;;;;;;14.11;67.38;100580.56;4997294;28;20054;-51
2022/05/26 04:38:43;;;;;;;2.80;2.10;;;;;;;14.15;67.46;100571.78;4996828;28;20135;-53
2022/05/26 04:41:17;;;;;;;3.13;1.90;;;;;;;14.19;67.29;100573.41;4997053;28;20086;-52
2022/05/26 04:43:44;;;;;;;2.95;2.42;;;;;;;14.20;67.07;100569.91;4997016;28;20054;-54
2022/05/26 04:46:17;;;;;;;2.88;1.85;;;;;;;14.23;67.25;100568.97;5015064;28;20356;-54
2022/05/26 04:48:46;;;;;;;3.38;1.80;;;;;;;14.25;67.01;100565.41;5016404;28;20053;-51
2022/05/26 04:51:15;;;;;;;4.28;1.98;;;;;;;14.27;67.36;100566.25;5016511;28;20053;-51
2022/05/26 04:53:45;;;;;;;3.53;2.58;;;;;;;14.31;67.28;100565.25;5016257;28;20050;-51
2022/05/26 04:56:22;;;;;;;3.38;2.40;;;;;;;14.34;67.13;100565.19;5016216;28;20058;-51
2022/05/26 04:58:50;;;;;;;4.00;2.38;;;;;;;14.39;67.12;100565.91;5016414;28;20069;-52
2022/05/26 05:01:21;;;;;;;4.05;2.92;;;;;;;14.44;66.77;100574.50;5016173;28;20054;-51
2022/05/26 05:03:50;;;;;;;4.18;2.53;;;;;;;14.46;67.19;100567.50;4998600;28;20046;-52
2022/05/26 05:06:18;;;;;;;4.13;2.25;;;;;;;14.52;66.98;100572.53;4996437;28;20138;-52
2022/05/26 05:08:48;;;;;;;3.97;2.25;;;;;;;14.58;67.10;100562.88;4995618;28;20046;-52
2022/05/26 05:11:17;;;;;;;2.65;2.10;;;;;;;14.59;66.90;100565.44;4996651;28;20050;-54
2022/05/26 05:13:48;;;;;;;4.32;2.22;;;;;;;14.64;67.00;100570.53;4996552;28;20050;-54
2022/05/26 05:16:26;;;;;;;5.15;2.70;;;;;;;14.68;66.72;100562.56;4996159;28;20514;-54
2022/05/26 05:18:56;;;;;;;4.28;2.40;;;;;;;14.74;66.95;100571.97;4996374;28;20050;-54
2022/05/26 05:21:28;;;;;;;3.30;2.53;;;;;;;14.81;66.78;100568.28;4996300;28;20046;-54
2022/05/26 05:24:00;;;;;;;4.18;2.53;;;;;;;14.87;66.62;100562.88;4996237;28;20073;-53
2022/05/26 05:26:37;;;;;;;4.13;2.78;;;;;;;14.94;66.38;100564.41;4996008;28;20526;-52
2022/05/26 05:29:14;;;;;;;3.22;2.65;;;;;;;14.97;66.38;100559.09;4995692;28;20414;-53
2022/05/26 05:31:45;;;;;;;4.35;2.90;;;;;;;14.98;66.78;100560.81;4995832;28;20086;-52
2022/05/26 05:34:18;;;;;;;3.70;2.90;;;;;;;15.00;66.59;100559.03;4995814;28;20061;-55
2022/05/26 05:36:46;;;;;;;4.18;3.15;;;;;;;15.01;66.50;100555.50;4996106;28;20061;-52
2022/05/26 05:39:16;;;;;;;5.43;2.85;;;;;;;15.04;66.79;100560.63;4994565;28;20638;-50
2022/05/26 05:41:47;;;;;;;4.72;3.22;;;;;;;15.08;66.43;100550.97;4995552;28;20485;-52
2022/05/26 05:44:17;;;;;;;5.80;3.65;;;;;;;15.10;66.35;100557.88;4998681;28;20659;-51
2022/05/26 05:47:01;;;;;;;4.57;3.20;;;;;;;15.15;66.71;100558.59;5001785;28;20117;-51
2022/05/26 05:49:32;;;;;;;5.07;3.20;;;;;;;15.22;66.58;100554.03;4995904;28;20050;-51
2022/05/26 05:52:10;;;;;;;2.60;2.40;;;;;;;15.31;66.41;100555.50;4995719;28;20054;-53
2022/05/26 05:54:39;;;;;;;4.63;3.05;;;;;;;15.37;66.24;100550.09;4995740;28;20058;-51
2022/05/26 05:57:15;;;;;;;3.35;2.90;;;;;;;15.40;66.03;100552.63;4995404;28;20050;-52
2022/05/26 05:59:42;;;;;;;4.88;2.92;;;;;;;15.43;66.31;100549.91;4995400;28;20141;-51
2022/05/26 06:02:13;;;;;;;4.38;3.17;;;;;;;15.47;66.18;100551.50;4995247;28;20069;-54
2022/05/26 06:04:42;;;;;;;7.72;2.53;;;;;;;15.55;66.06;100552.13;4995560;28;20054;-52
2022/05/26 06:07:21;;;;;;;7.32;2.90;;;;;;;15.61;65.73;100552.00;4995379;28;20124;-52
2022/05/26 06:09:49;;;;;;;5.32;2.90;;;;;;;15.68;65.84;100547.44;4994800;28;20128;-52
2022/05/26 06:12:33;;;;;;;3.55;2.80;;;;;;;15.77;65.50;100542.75;4995355;28;20193;-51
2022/05/26 06:15:00;;;;;;;5.05;3.00;;;;;;;15.86;64.85;100540.72;4995151;28;20053;-53
2022/05/26 06:20:10;;;;;;;3.95;2.75;;;;;;;16.07;64.66;100529.53;4988968;28;20058;-54
2022/05/26 06:22:39;;;;;;;4.68;3.13;;;;;;;16.29;63.95;100527.06;4990071;28;20261;-54
2022/05/26 06:25:09;;;;;;;3.65;2.67;;;;;;;16.46;63.57;100526.47;4982849;28;20054;-54
2022/05/26 06:30:30;;;;;;;4.70;3.10;;;;;;;16.83;62.85;100515.56;4975592;28;20093;-51
2022/05/26 06:38:33;;;;;;;4.00;2.80;;;;;;;17.48;61.30;100520.00;4974953;28;20462;-51
2022/05/26 06:42:05;;;;;;;4.55;2.50;;;;;;;17.63;61.36;100516.75;4975365;28;20066;-51
2022/05/26 06:43:58;;;;;;;5.38;2.65;;;;;;;17.82;60.54;100515.13;4974842;28;20160;-51
2022/05/26 06:46:27;;;;;;;2.97;2.30;;;;;;;17.92;59.91;100510.34;5014316;28;20133;-51
2022/05/26 06:48:55;;;;;;;4.75;2.38;;;;;;;17.98;59.56;100512.72;5014281;28;20053;-51
2022/05/26 06:51:29;;;;;;;8.30;2.13;;;;;;;17.97;59.19;100504.00;5013880;28;20058;-51
2022/05/26 06:53:57;;;;;;;3.85;2.20;;;;;;;17.99;58.80;100509.19;5014307;28;20065;-51
2022/05/26 06:56:25;;;;;;;4.13;1.90;;;;;;;17.98;58.51;100512.72;4995564;28;20066;-51
2022/05/26 06:58:55;;;;;;;7.25;2.13;;;;;;;17.99;58.32;100509.19;4992981;28;20058;-51
2022/05/26 07:01:33;;;;;;;4.45;2.00;;;;;;;18.04;58.06;100503.75;4993559;28;20556;-54
2022/05/26 07:04:00;;;;;;;3.08;1.80;;;;;;;18.09;57.98;100507.00;4994047;28;20695;-51
2022/05/26 07:06:29;;;;;;;4.32;2.40;;;;;;;18.13;57.56;100514.69;4994239;28;20050;-53
2022/05/26 07:09:06;;;;;;;3.30;2.10;;;;;;;18.12;57.62;100512.13;4993589;28;20382;-53
2022/05/26 07:11:36;;;;;;;6.15;2.40;;;;;;;18.11;57.43;100511.28;4993897;28;20058;-54
2022/05/26 07:14:07;;;;;;;7.88;2.40;;;;;;;18.06;57.31;100508.00;4993827;28;20560;-53
2022/05/26 07:16:49;;;;;;;5.30;2.55;;;;;;;18.03;56.84;100508.13;4994309;28;20061;-53
2022/05/26 07:19:21;;;;;;;3.30;1.65;;;;;;;18.00;57.61;100508.25;4993968;28;20054;-55
2022/05/26 07:21:49;;;;;;;2.97;2.03;;;;;;;17.99;58.06;100493.44;4994194;28;20062;-52
2022/05/26 07:24:19;;;;;;;4.65;2.13;;;;;;;18.11;57.84;100497.31;4993682;28;20402;-54
2022/05/26 07:26:48;;;;;;;3.00;1.90;;;;;;;18.25;57.37;100487.94;4993782;28;20064;-54
2022/05/26 07:29:17;;;;;;;6.18;2.55;;;;;;;18.47;56.76;100489.59;4993370;28;20526;-51
2022/05/26 07:31:56;;;;;;;3.53;2.35;;;;;;;18.67;55.54;100484.34;4994015;28;20057;-51
2022/05/26 07:34:26;;;;;;;3.70;2.25;;;;;;;18.89;55.28;100487.69;4993972;28;20117;-51
2022/05/26 07:42:33;;;;;;;9.18;2.38;;;;;;;19.55;53.13;100468.81;4993420;28;20537;-54
2022/05/26 07:45:12;;;;;;;3.30;1.90;;;;;;;19.78;53.03;100468.53;5002679;28;20062;-53
2022/05/26 07:47:44;;;;;;;3.17;1.90;;;;;;;20.09;51.67;100470.44;5012840;28;20476;-55
2022/05/26 07:50:19;;;;;;;4.50;2.10;;;;;;;20.28;51.77;100469.47;5012926;28;20073;-53
2022/05/26 07:52:47;;;;;;;4.13;2.00;;;;;;;20.45;51.03;100466.84;4993738;28;20054;-52
2022/05/26 07:55:16;;;;;;;10.15;3.47;;;;;;;20.58;50.60;100474.94;4993025;28;20086;-54
2022/05/26 07:57:49;;;;;;;3.80;1.88;;;;;;;20.66;50.06;100470.09;4993563;28;20077;-54
2022/05/26 08:00:21;;;;;;;4.40;2.63;;;;;;;20.68;49.79;100478.75;4998603;28;20077;-51
2022/05/26 08:02:52;;;;;;;3.65;1.50;;;;;;;20.70;50.05;100469.84;4994732;28;20062;-54
2022/05/26 08:05:21;;;;;;;2.75;1.55;;;;;;;20.66;50.26;100465.69;4997485;28;20058;-51
2022/05/26 08:07:49;;;;;;;2.30;1.38;;;;;;;20.61;50.33;100472.13;4996872;28;20061;-55
2022/05/26 08:10:23;;;;;;;3.03;1.50;;;;;;;20.53;50.53;100475.19;4998047;28;20069;-52
2022/05/26 08:12:49;;;;;;;3.20;1.60;;;;;;;20.37;50.64;100477.75;5005575;28;20080;-52
2022/05/26 08:15:19;;;;;;;4.30;1.27;;;;;;;20.20;51.28;100492.69;5013629;28;20049;-51
2022/05/26 08:17:48;;;;;;;3.35;1.73;;;;;;;20.02;51.54;100495.34;5013307;28;20081;-53
2022/05/26 08:20:19;;;;;;;2.78;1.55;;;;;;;19.88;51.72;100502.25;5006625;28;20054;-54
2022/05/26 08:22:47;;;;;;;2.85;1.60;;;;;;;19.72;53.51;100499.50;5007665;28;20054;-55
2022/05/26 08:25:16;;;;;;;1.83;1.40;;;;;;;19.50;54.65;100503.19;5006543;28;20538;-54
2022/05/26 08:27:46;;;;;;;3.53;1.35;;;;;;;19.34;55.64;100507.47;4996450;28;20077;-54
2022/05/26 08:30:14;;;;;;;4.00;1.40;;;;;;;19.23;56.30;100509.75;5003646;28;20046;-53
2022/05/26 08:32:43;;;;;;;2.35;1.23;;;;;;;19.16;56.47;100505.69;5016503;28;20097;-52
2022/05/26 08:35:15;;;;;;;1.90;1.40;;;;;;;19.10;56.54;100498.97;5016776;28;20050;-51
2022/05/26 08:37:47;;;;;;;3.33;1.33;;;;;;;19.05;56.34;100505.38;5016459;28;20061;-53
2022/05/26 08:40:29;;;;;;;2.05;0.95;;;;;;;19.08;56.09;100505.22;5016714;28;20054;-51
2022/05/26 08:42:56;;;;;;;1.67;1.30;;;;;;;19.28;56.13;100502.53;5016299;28;20050;-52
2022/05/26 08:45:26;;;;;;;5.07;1.13;;;;;;;19.57;55.62;100508.16;5004230;28;20062;-52
2022/05/26 08:47:55;;;;;;;3.97;1.20;;;;;;;19.85;55.08;100509.38;4996858;28;20050;-53
2022/05/26 08:50:30;;;;;;;3.03;1.25;;;;;;;20.20;54.07;100508.50;4996392;28;20394;-52
2022/05/26 08:53:07;;;;;;;2.92;1.10;;;;;;;20.37;53.22;100503.22;4977309;28;20125;-51
2022/05/26 08:55:43;;;;;;;6.00;1.42;;;;;;;20.48;52.03;100495.63;4977051;28;20066;-52
2022/05/26 08:58:17;;;;;;;1.88;1.27;;;;;;;20.48;51.62;100504.38;4977117;28;20050;-54
2022/05/26 09:00:48;;;;;;;2.67;1.55;;;;;;;20.50;51.69;100506.94;4976498;28;20504;-52
2022/05/26 09:03:27;;;;;;;2.42;1.20;;;;;;;20.44;51.12;100502.00;4977117;28;20073;-55
2022/05/26 09:06:06;;;;;;;3.42;1.50;;;;;;;20.41;51.11;100508.28;4976858;28;20485;-53
2022/05/26 09:14:25;;;;;;;3.45;1.10;;;;;;;20.23;51.19;100508.31;4976030;28;20066;-52
2022/05/26 09:17:01;;;;;;;5.75;1.45;;;;;;;20.19;51.52;100512.91;4989821;28;20112;-52
2022/05/26 09:19:35;;;;;;;3.53;1.20;;;;;;;20.15;51.24;100504.31;4995252;28;20187;-53
2022/05/26 09:22:02;;;;;;;3.05;1.40;;;;;;;20.15;51.64;100511.34;4995237;28;20132;-54
2022/05/26 09:24:37;;;;;;;3.15;1.02;;;;;;;20.16;51.33;100515.69;4983188;28;20872;-55
2022/05/26 09:27:22;;;;;;;2.65;1.10;;;;;;;20.10;51.19;100502.84;4984505;28;20065;-56
2022/05/26 09:29:50;;;;;;;;;;;;;;;19.89;51.04;100515.31;4976689;28;20051;-54
2022/05/26 09:32:22;;;;;;;4.78;1.48;;;;;;;19.83;52.02;100511.22;4973944;28;20398;-53
2022/05/26 09:35:09;;;;;;;3.08;0.98;;;;;;;19.77;51.95;100515.91;4973802;28;20484;-55
2022/05/26 09:37:41;;;;;;;3.10;1.00;;;;;;;19.73;52.37;100519.63;4974174;28;20053;-55
2022/05/26 09:40:18;;;;;;;4.20;1.33;;;;;;;19.74;52.29;100518.69;4972684;28;20054;-53
2022/05/26 09:42:50;;;;;;;1.70;0.90;;;;;;;19.81;52.48;100525.38;4973719;28;20066;-55
2022/05/26 09:45:20;;;;;;;5.90;1.27;;;;;;;19.99;52.51;100521.81;5003771;28;20374;-53
2022/05/26 09:47:57;;;;;;;1.95;1.10;;;;;;;20.18;50.80;100512.06;5004623;28;20058;-55
2022/05/26 09:50:45;;;;;;;8.88;1.10;;;;;;;20.42;50.61;100511.75;4994111;28;20112;-54
2022/05/26 09:53:14;;;;;;;3.88;1.00;;;;;;;20.53;49.92;100517.31;4994659;28;20103;-54
2022/05/26 09:55:48;;;;;;;1.92;1.00;;;;;;;20.62;49.11;100505.44;4993946;28;20718;-52
2022/05/26 09:58:29;;;;;;;3.03;0.90;;;;;;;20.64;48.95;100504.41;4994344;28;20050;-55
2022/05/26 10:00:59;;;;;;;4.70;1.13;;;;;;;20.66;49.27;100513.09;4993646;28;20060;-55
2022/05/26 10:03:40;;;;;;;4.15;0.88;;;;;;;20.70;49.07;100511.97;4994650;28;20054;-56
2022/05/26 10:06:17;;;;;;;2.38;0.85;;;;;;;20.68;48.31;100521.75;4995664;28;20074;-52
2022/05/26 10:08:59;;;;;;;3.85;0.93;;;;;;;20.65;48.59;100527.19;4995030;28;20526;-56
2022/05/26 10:11:57;;;;;;;4.80;1.00;;;;;;;20.63;48.35;100534.31;4995371;28;20065;-54
2022/05/26 10:14:49;;;;;;;5.07;1.30;;;;;;;20.51;49.91;100540.22;4995548;28;20092;-54
2022/05/26 10:17:26;;;;;;;2.83;1.10;;;;;;;20.17;52.04;100549.81;4995320;28;20055;-53
2022/05/26 10:20:13;;;;;;;2.88;1.10;;;;;;;19.95;53.22;100578.16;4995084;28;20062;-50
2022/05/26 10:22:51;;;;;;;5.55;1.60;;;;;;;19.68;58.08;100603.16;4995168;28;20058;-51
2022/05/26 10:25:30;;;;;;;4.45;1.45;;;;;;;19.24;60.88;100611.28;4994287;28;20129;-54
2022/05/26 10:28:33;;;;;;;2.53;1.10;;;;;;;18.99;61.32;100600.22;4994799;28;20062;-53
2022/05/26 10:31:14;;;;;;;1.92;1.00;;;;;;;18.79;60.98;100575.72;4995041;28;20089;-50
2022/05/26 10:34:05;;;;;;;3.40;1.02;;;;;;;18.72;61.53;100566.38;4994838;28;20136;-50
2022/05/26 10:36:58;;;;;;;2.30;1.10;;;;;;;18.64;61.36;100560.59;4994851;28;20054;-51
2022/05/26 10:40:01;;;;;;;3.15;0.98;;;;;;;18.59;61.83;100558.16;4993690;28;20061;-51
2022/05/26 10:42:35;;;;;;;5.32;1.90;;;;;;;18.55;61.02;100548.72;4994828;28;20050;-54
2022/05/26 10:45:22;;;;;;;3.60;1.63;;;;;;;18.61;60.76;100552.84;5003722;28;20046;-54
2022/05/26 10:47:56;;;;;;;4.55;1.50;;;;;;;18.60;60.63;100553.75;5013964;28;20614;-54
2022/05/26 10:50:39;;;;;;;2.63;1.40;;;;;;;18.66;60.92;100550.91;5013997;28;20089;-53
2022/05/26 10:53:16;;;;;;;4.32;1.40;;;;;;;18.76;61.33;100552.22;5013808;28;20706;-53
2022/05/26 10:55:53;;;;;;;1.48;0.90;;;;;;;18.87;61.09;100560.47;5014086;28;20049;-54
2022/05/26 10:58:26;;;;;;;2.20;1.02;;;;;;;18.99;60.58;100559.03;5014335;28;20093;-54
2022/05/26 11:01:18;;;;;;;5.10;1.60;;;;;;;19.10;60.76;100561.16;5013663;28;20504;-53
2022/05/26 11:03:52;;;;;;;3.67;1.42;;;;;;;19.14;60.12;100560.09;5013551;28;20087;-54
2022/05/26 11:06:27;;;;;;;2.83;1.30;;;;;;;19.13;59.77;100566.28;5013572;28;20068;-54
2022/05/26 11:09:00;;;;;;;5.10;1.88;;;;;;;19.07;59.74;100571.81;5013266;28;20053;-50
2022/05/26 11:11:36;;;;;;;2.70;1.33;;;;;;;19.03;59.55;100567.63;5013440;28;20049;-53
2022/05/26 11:17:21;;;;;;;5.60;1.50;;;;;;;18.98;59.83;100567.00;5014546;28;20054;-50
2022/05/26 11:19:57;;;;;;;3.55;1.38;;;;;;;18.85;60.11;100580.69;5013504;28;20437;-52
2022/05/26 11:22:25;;;;;;;6.13;1.75;;;;;;;18.79;61.02;100578.34;5013686;28;20053;-54
2022/05/26 11:25:01;;;;;;;3.08;1.35;;;;;;;18.75;61.60;100575.91;5013667;28;20050;-54
2022/05/26 11:27:37;;;;;;;3.17;1.30;;;;;;;18.63;61.24;100577.28;4974846;28;20043;-54
2022/05/26 11:36:22;;;;;;;3.70;1.60;;;;;;;18.44;61.40;100568.47;4980636;28;20065;-54
2022/05/26 11:38:54;;;;;;;10.95;2.15;;;;;;;18.38;60.63;100576.63;4994083;28;20061;-53
2022/05/26 11:41:31;;;;;;;3.47;1.15;;;;;;;18.28;59.43;100569.16;4993817;28;20113;-54
2022/05/26 11:44:03;;;;;;;3.78;1.10;;;;;;;18.25;59.32;100563.19;4994190;28;20054;-50
2022/05/26 11:47:00;;;;;;;4.30;1.10;;;;;;;18.20;57.04;100563.34;5012794;28;20454;-52
2022/05/26 11:50:03;;;;;;;3.38;0.77;;;;;;;18.17;56.94;100563.47;5013452;28;20045;-50
2022/05/26 11:53:04;;;;;;;1.92;1.00;;;;;;;18.18;56.98;100565.19;5013114;28;20053;-53
2022/05/26 11:55:34;;;;;;;3.33;0.90;;;;;;;18.18;57.28;100575.69;5013363;28;20092;-51
2022/05/26 11:58:20;;;;;;;4.95;1.20;;;;;;;18.20;56.97;100571.22;5013142;28;20065;-51
2022/05/26 12:00:50;;;;;;;5.85;0.88;;;;;;;18.19;57.27;100561.63;5012904;28;20438;-54
2022/05/26 12:03:31;;;;;;;3.75;0.85;;;;;;;18.21;57.27;100572.94;5013048;28;20057;-52
2022/05/26 12:06:16;;;;;;;3.28;0.70;;;;;;;18.23;57.40;100568.50;5013282;28;20081;-54
2022/05/26 12:09:01;;;;;;;3.22;0.85;;;;;;;18.31;57.49;100567.31;5012850;28;20069;-53
2022/05/26 12:11:58;;;;;;;2.53;1.10;;;;;;;18.38;57.78;100558.25;5012606;28;20057;-54
2022/05/26 12:14:29;;;;;;;2.97;0.80;;;;;;;18.46;57.86;100558.75;5013258;28;20053;-52
2022/05/26 12:17:33;;;;;;;2.33;0.80;;;;;;;18.54;57.94;100562.75;5013113;28;20120;-54
2022/05/26 12:20:04;;;;;;;1.92;0.80;;;;;;;18.58;57.54;100564.31;5012792;28;20336;-51
2022/05/26 12:22:33;;;;;;;2.75;0.70;;;;;;;18.65;57.11;100571.97;5012289;28;20060;-52
2022/05/26 12:25:32;;;;;;;2.30;0.98;;;;;;;18.71;57.24;100590.06;4992807;28;20374;-50
2022/05/26 12:28:29;;;;;;;2.72;0.73;;;;;;;18.71;56.11;100600.56;4959283;28;20399;-54
2022/05/26 12:31:06;;;;;;;4.65;0.90;;;;;;;18.67;54.45;100594.59;4992519;28;20050;-53
2022/05/26 12:34:07;;;;;;;3.55;0.88;;;;;;;18.60;54.08;100578.25;5008068;28;20085;-54
2022/05/26 12:37:04;;;;;;;4.68;0.88;;;;;;;18.52;53.50;100582.97;5003543;28;20498;-53
2022/05/26 12:40:06;;;;;;;4.03;1.10;;;;;;;18.46;52.79;100580.63;4993409;28;20058;-53
2022/05/26 12:43:04;;;;;;;5.35;0.98;;;;;;;18.46;53.10;100582.38;4993225;28;20064;-51
2022/05/26 12:45:53;;;;;;;2.97;0.70;;;;;;;18.49;52.48;100577.00;5006455;28;20042;-51